Time;durP1;ratioP1;P1;durP2;ratioP2;P2;SDS_P1;SDS_P2;PMS_P1;PMS_P2;Temp;Humidity;BMP_temperature;BMP_pressure;BME280_temperature;BME280_humidity;BME280_pressure;Samples;Min_cycle;Max_cycle;Signal;HPM_P1;HPM_P2
2023/10/13 00:01:58;;;;;;;119.47;50.22;;;15.20;99.90;;;;;;4955561;28;20446;-86
2023/10/13 00:04:25;;;;;;;121.35;48.80;;;15.20;99.90;;;;;;4971504;28;20631;-87
2023/10/13 00:06:56;;;;;;;120.68;50.25;;;15.30;99.90;;;;;;4972318;28;20438;-91
2023/10/13 00:09:32;;;;;;;114.93;49.97;;;15.30;99.90;;;;;;4951134;28;20479;-88
2023/10/13 00:11:59;;;;;;;111.90;46.30;;;15.40;99.90;;;;;;4973510;28;20081;-90
2023/10/13 00:14:33;;;;;;;123.65;48.50;;;15.40;99.90;;;;;;4958848;28;20073;-87
2023/10/13 00:17:15;;;;;;;99.47;44.60;;;15.40;99.90;;;;;;4958151;28;20043;-88
2023/10/13 00:19:45;;;;;;;;;;;15.50;99.90;;;;;;4959761;28;20046;-89
2023/10/13 00:22:12;;;;;;;107.38;45.03;;;15.60;99.90;;;;;;4969526;28;19922;-87
2023/10/13 00:24:42;;;;;;;100.63;44.80;;;15.50;99.90;;;;;;4961743;28;20043;-88
2023/10/13 00:27:24;;;;;;;99.30;44.35;;;15.50;99.90;;;;;;4958320;28;20106;-87
2023/10/13 00:29:51;;;;;;;114.93;47.28;;;15.70;99.90;;;;;;4957595;28;20035;-90
2023/10/13 00:32:23;;;;;;;99.78;44.92;;;15.60;99.90;;;;;;4956879;28;20130;-90
2023/10/13 00:34:55;;;;;;;104.30;46.95;;;15.70;99.90;;;;;;4952222;28;20471;-89
2023/10/13 00:37:27;;;;;;;94.65;46.03;;;15.70;99.90;;;;;;4959050;28;20138;-87
2023/10/13 00:39:56;;;;;;;86.00;43.03;;;15.80;99.90;;;;;;4952444;28;20035;-91
2023/10/13 00:42:33;;;;;;;91.45;44.65;;;15.80;99.90;;;;;;4958840;28;20046;-89
2023/10/13 00:45:00;;;;;;;74.70;40.88;;;15.80;99.90;;;;;;4958979;28;20081;-86
2023/10/13 00:50:01;;;;;;;89.22;41.67;;;15.90;99.90;;;;;;4975368;28;20047;-85
2023/10/13 00:52:29;;;;;;;82.78;40.60;;;15.90;99.90;;;;;;4958466;28;20061;-91
2023/10/13 00:54:56;;;;;;;85.40;41.13;;;15.90;99.90;;;;;;4943194;28;20057;-90
2023/10/13 00:57:28;;;;;;;82.90;39.15;;;16.00;99.90;;;;;;4959418;28;20038;-91
2023/10/13 00:59:55;;;;;;;73.20;37.65;;;16.00;99.90;;;;;;4960149;28;20184;-89
2023/10/13 01:02:42;;;;;;;79.28;39.08;;;16.00;99.90;;;;;;4955118;28;20372;-88
2023/10/13 01:05:19;;;;;;;81.53;39.55;;;16.10;99.90;;;;;;4958839;28;20274;-88
2023/10/13 01:07:50;;;;;;;71.68;37.70;;;16.10;99.90;;;;;;4960069;28;20319;-89
2023/10/13 01:10:16;;;;;;;71.40;37.40;;;16.10;99.90;;;;;;4958295;28;20064;-90
2023/10/13 01:12:43;;;;;;;84.45;40.55;;;16.10;99.90;;;;;;4958408;28;20043;-87
2023/10/13 01:15:11;;;;;;;75.13;36.92;;;16.10;99.90;;;;;;4958207;28;20070;-91
2023/10/13 01:17:36;;;;;;;76.00;36.17;;;16.10;99.90;;;;;;4957272;28;20407;-90
2023/10/13 01:20:07;;;;;;;79.93;37.30;;;16.10;99.90;;;;;;4958410;28;20043;-88
2023/10/13 01:22:35;;;;;;;73.78;37.13;;;16.10;99.90;;;;;;4973965;28;20101;-89
2023/10/13 01:25:12;;;;;;;81.25;37.95;;;16.20;99.90;;;;;;4956284;28;20364;-90
2023/10/13 01:27:40;;;;;;;76.22;37.95;;;16.10;99.90;;;;;;4974624;28;20392;-89
2023/10/13 01:30:13;;;;;;;82.05;38.70;;;16.20;99.90;;;;;;4974217;28;20039;-88
2023/10/13 01:32:40;;;;;;;71.82;36.60;;;16.20;99.90;;;;;;4974684;28;20478;-90
2023/10/13 01:35:07;;;;;;;68.57;36.65;;;16.20;99.90;;;;;;4958209;28;20125;-88
2023/10/13 01:37:33;;;;;;;72.38;36.63;;;16.20;99.90;;;;;;4967037;28;20086;-89
2023/10/13 01:39:59;;;;;;;75.20;37.00;;;16.20;99.90;;;;;;4939792;29;20074;-89
2023/10/13 01:42:25;;;;;;;74.93;37.38;;;16.20;99.90;;;;;;4968913;28;20034;-89
2023/10/13 01:44:51;;;;;;;75.03;37.47;;;16.20;99.90;;;;;;4974004;28;20081;-90
2023/10/13 01:47:17;;;;;;;80.75;39.13;;;16.20;99.90;;;;;;4954070;28;20042;-91
2023/10/13 01:49:46;;;;;;;80.22;39.60;;;16.20;99.90;;;;;;4957883;28;20055;-92
2023/10/13 01:52:16;;;;;;;85.93;40.08;;;16.20;99.90;;;;;;4960913;28;20039;-89
2023/10/13 01:54:50;;;;;;;83.22;39.35;;;16.20;99.90;;;;;;4971105;28;20046;-90
2023/10/13 01:57:18;;;;;;;81.72;40.53;;;16.20;99.90;;;;;;4969824;28;20445;-88
2023/10/13 01:59:45;;;;;;;82.00;40.03;;;16.20;99.90;;;;;;4957326;28;20039;-89
2023/10/13 02:02:14;;;;;;;89.90;40.20;;;16.20;99.90;;;;;;4958148;28;20101;-91
2023/10/13 02:04:48;;;;;;;86.35;41.70;;;16.20;99.90;;;;;;4955230;28;20094;-90
2023/10/13 02:07:17;;;;;;;89.28;42.53;;;16.20;99.90;;;;;;4971899;28;20058;-87
2023/10/13 02:09:45;;;;;;;78.43;39.63;;;16.30;99.90;;;;;;4957892;28;20046;-92
2023/10/13 02:12:11;;;;;;;79.25;39.60;;;16.20;99.90;;;;;;4973175;28;20041;-90
2023/10/13 02:14:38;;;;;;;79.80;38.65;;;16.20;99.90;;;;;;4941281;28;20133;-89
2023/10/13 02:17:13;;;;;;;80.68;39.20;;;16.20;99.90;;;;;;4957244;28;20097;-91
2023/10/13 02:19:43;;;;;;;69.20;37.55;;;16.30;99.90;;;;;;4954652;29;20546;-92
2023/10/13 02:22:10;;;;;;;82.85;39.72;;;16.20;99.90;;;;;;4931021;28;20093;-89
2023/10/13 02:24:39;;;;;;;76.25;39.00;;;16.20;99.90;;;;;;4945904;28;20057;-89
2023/10/13 02:27:13;;;;;;;79.78;38.70;;;16.30;99.90;;;;;;4957593;28;20042;-90
2023/10/13 02:29:40;;;;;;;69.75;36.03;;;16.20;99.90;;;;;;4973203;28;20043;-88
2023/10/13 02:32:18;;;;;;;70.80;36.97;;;16.30;99.90;;;;;;4957371;28;20045;-90
2023/10/13 02:34:44;;;;;;;69.07;36.03;;;16.20;99.90;;;;;;4957180;28;20047;-92
2023/10/13 02:37:11;;;;;;;64.43;35.05;;;16.20;99.90;;;;;;4941561;28;20045;-89
2023/10/13 02:39:41;;;;;;;62.17;33.80;;;16.30;99.90;;;;;;4958023;28;20038;-88
2023/10/13 02:42:07;;;;;;;65.38;34.75;;;16.30;99.90;;;;;;4958394;28;20042;-91
2023/10/13 02:44:36;;;;;;;62.75;32.85;;;16.30;99.90;;;;;;4972838;28;20410;-90
2023/10/13 02:47:14;;;;;;;62.13;33.22;;;16.30;99.90;;;;;;4958911;28;20491;-91
2023/10/13 02:49:43;;;;;;;65.82;34.05;;;16.30;99.90;;;;;;4959682;28;20137;-88
2023/10/13 02:52:09;;;;;;;62.28;34.78;;;16.30;99.90;;;;;;4955586;29;20043;-87
2023/10/13 02:54:50;;;;;;;56.80;33.33;;;16.30;99.90;;;;;;4970232;28;20035;-92
2023/10/13 02:57:19;;;;;;;65.50;35.13;;;16.30;99.90;;;;;;4957619;28;20078;-92
2023/10/13 02:59:50;;;;;;;68.90;35.20;;;16.30;99.90;;;;;;4955284;28;20494;-92
2023/10/13 03:02:17;;;;;;;66.47;32.72;;;16.30;99.90;;;;;;4961382;28;20035;-94
2023/10/13 03:04:46;;;;;;;62.35;33.38;;;16.30;99.90;;;;;;4974363;28;20053;-89
2023/10/13 03:07:15;;;;;;;62.28;32.88;;;16.30;99.90;;;;;;4974680;28;20039;-93
2023/10/13 03:09:50;;;;;;;63.80;33.13;;;16.30;99.90;;;;;;4942954;28;20049;-91
2023/10/13 03:12:16;;;;;;;63.08;33.28;;;16.30;99.90;;;;;;4957840;28;20081;-92
2023/10/13 03:14:47;;;;;;;60.60;29.67;;;16.30;99.90;;;;;;4958297;28;20039;-91
2023/10/13 03:17:22;;;;;;;68.13;34.17;;;16.30;99.90;;;;;;4958492;28;20066;-91
2023/10/13 03:19:51;;;;;;;58.05;32.28;;;16.30;99.90;;;;;;4990480;28;20522;-91
2023/10/13 03:22:29;;;;;;;58.08;31.30;;;16.30;99.90;;;;;;4955738;28;20046;-87
2023/10/13 03:24:59;;;;;;;59.40;30.88;;;16.30;99.90;;;;;;4981549;28;20046;-91
2023/10/13 03:27:40;;;;;;;62.97;30.92;;;16.30;99.90;;;;;;4931507;28;20043;-90
2023/10/13 03:30:15;;;;;;;55.70;28.73;;;16.30;99.90;;;;;;4972488;28;20114;-90
2023/10/13 03:32:45;;;;;;;64.18;31.40;;;16.30;99.90;;;;;;4972773;28;20121;-88
2023/10/13 03:35:23;;;;;;;52.00;29.65;;;16.30;99.90;;;;;;4964797;28;20031;-89
2023/10/13 03:37:49;;;;;;;59.47;30.10;;;16.30;99.90;;;;;;4953677;28;20038;-87
2023/10/13 03:43:10;;;;;;;49.92;26.23;;;16.30;99.90;;;;;;4966316;28;20047;-89
2023/10/13 03:45:43;;;;;;;42.85;25.17;;;16.30;99.90;;;;;;4959339;28;20047;-89
2023/10/13 03:51:03;;;;;;;46.38;25.77;;;16.30;99.90;;;;;;4973813;28;20047;-88
2023/10/13 03:53:50;;;;;;;53.20;26.60;;;16.30;99.90;;;;;;4950565;28;20122;-88
2023/10/13 03:56:23;;;;;;;53.58;26.73;;;16.30;99.90;;;;;;4956508;28;20045;-87
2023/10/13 03:58:52;;;;;;;56.90;26.73;;;16.30;99.90;;;;;;4975164;28;21614;-88
2023/10/13 04:01:18;;;;;;;54.08;27.75;;;16.30;99.90;;;;;;4955970;28;20396;-86
2023/10/13 04:17:25;;;;;;;51.33;27.40;;;16.30;99.90;;;;;;4975152;28;20042;-86
2023/10/13 04:25:38;;;;;;;52.13;27.67;;;16.20;99.90;;;;;;4967373;28;19968;-85
2023/10/13 04:28:15;;;;;;;51.53;27.88;;;16.20;99.90;;;;;;4959180;28;20042;-87
2023/10/13 04:33:36;;;;;;;47.05;27.25;;;16.30;99.90;;;;;;4974291;28;20135;-89
2023/10/13 04:39:09;;;;;;;50.65;26.90;;;16.30;99.90;;;;;;4990250;28;20051;-87
2023/10/13 04:41:42;;;;;;;52.33;26.42;;;16.30;99.90;;;;;;4974167;28;20050;-86
2023/10/13 04:49:28;;;;;;;44.38;24.63;;;16.30;99.90;;;;;;4957445;28;20055;-84
2023/10/13 04:51:59;;;;;;;45.42;25.63;;;16.30;99.90;;;;;;4971914;28;20686;-85
2023/10/13 04:54:44;;;;;;;46.40;25.00;;;16.30;99.90;;;;;;4973937;28;20038;-86
2023/10/13 05:51:33;;;;;;;22.63;14.20;;;16.00;99.90;;;;;;4972841;28;20057;-85
2023/10/13 06:30:00;;;;;;;12.45;10.10;;;16.10;99.90;;;;;;4972620;28;20130;-83
2023/10/13 06:32:27;;;;;;;13.30;10.40;;;16.10;99.90;;;;;;4960614;28;20071;-87
2023/10/13 06:35:07;;;;;;;15.77;10.18;;;16.20;99.90;;;;;;4956136;28;20041;-81
2023/10/13 06:37:34;;;;;;;13.45;9.85;;;16.20;99.90;;;;;;4951384;28;20098;-87
2023/10/13 06:40:52;;;;;;;12.07;9.10;;;16.20;99.90;;;;;;4980319;28;20105;-83
2023/10/13 06:43:12;;;;;;;12.55;8.02;;;16.20;99.90;;;;;;4958829;28;20043;-83
2023/10/13 06:45:38;;;;;;;7.22;5.63;;;16.30;99.90;;;;;;4943554;28;20204;-86
2023/10/13 06:48:05;;;;;;;7.70;6.20;;;16.30;99.90;;;;;;4980816;28;20066;-88
2023/10/13 06:50:39;;;;;;;9.68;6.82;;;16.40;99.90;;;;;;4979606;28;20047;-82
2023/10/13 06:53:05;;;;;;;8.98;7.30;;;16.40;99.90;;;;;;4917723;28;20461;-85
2023/10/13 06:55:35;;;;;;;7.88;6.72;;;16.50;99.90;;;;;;4948235;28;20039;-89
2023/10/13 06:58:06;;;;;;;12.80;7.45;;;16.50;99.90;;;;;;4961301;28;20051;-81
2023/10/13 07:00:37;;;;;;;13.05;7.47;;;16.50;99.90;;;;;;4979905;28;21278;-83
2023/10/13 07:03:17;;;;;;;10.98;7.13;;;16.40;99.90;;;;;;4946053;28;20141;-88
2023/10/13 07:05:44;;;;;;;11.90;7.70;;;16.50;99.90;;;;;;4957917;28;20047;-84
2023/10/13 07:08:14;;;;;;;9.68;6.75;;;16.50;99.90;;;;;;4959381;28;20102;-85
2023/10/13 07:11:13;;;;;;;10.43;7.40;;;16.50;99.90;;;;;;4977497;28;20522;-85
2023/10/13 07:13:39;;;;;;;9.57;7.20;;;16.50;99.90;;;;;;4931686;28;20047;-86
2023/10/13 07:16:07;;;;;;;14.65;7.40;;;16.60;99.90;;;;;;4947500;28;20093;-82
2023/10/13 07:18:41;;;;;;;10.13;6.13;;;16.60;99.90;;;;;;4952643;28;20035;-85
2023/10/13 07:21:11;;;;;;;9.10;5.80;;;16.60;99.90;;;;;;4965196;28;20038;-87
2023/10/13 07:23:38;;;;;;;10.57;5.93;;;16.60;99.90;;;;;;4967799;28;20051;-90
2023/10/13 07:26:06;;;;;;;10.55;6.30;;;16.60;99.90;;;;;;4951195;28;20047;-83
2023/10/13 07:28:36;;;;;;;10.13;6.07;;;16.60;99.90;;;;;;4948873;28;20101;-86
2023/10/13 07:33:31;;;;;;;12.55;6.05;;;16.60;99.90;;;;;;4961495;28;20046;-87
2023/10/13 07:36:27;;;;;;;8.82;5.97;;;16.50;99.90;;;;;;4951792;28;20038;-83
2023/10/13 07:39:10;;;;;;;11.15;5.82;;;16.50;99.90;;;;;;4963181;28;20035;-86
2023/10/13 07:41:36;;;;;;;11.68;5.68;;;16.60;99.90;;;;;;4954888;28;20125;-86
2023/10/13 07:44:04;;;;;;;9.70;6.13;;;16.50;99.90;;;;;;4957547;28;20204;-86
2023/10/13 07:46:32;;;;;;;11.07;6.55;;;16.50;99.90;;;;;;4966673;28;20054;-84
2023/10/13 07:49:10;;;;;;;10.55;6.45;;;16.50;99.90;;;;;;4983664;28;20063;-86
2023/10/13 07:51:45;;;;;;;11.80;6.30;;;16.50;99.90;;;;;;4962602;28;20491;-86
2023/10/13 07:54:21;;;;;;;12.77;6.60;;;16.50;99.90;;;;;;4964022;28;20402;-85
2023/10/13 07:56:48;;;;;;;13.40;7.18;;;16.50;99.90;;;;;;4965802;28;20491;-85
2023/10/13 07:59:16;;;;;;;11.38;6.88;;;16.50;99.90;;;;;;4951715;28;20130;-87
2023/10/13 08:01:45;;;;;;;12.38;7.32;;;16.50;99.90;;;;;;4961299;28;20050;-86
2023/10/13 08:04:11;;;;;;;15.07;6.95;;;16.50;99.90;;;;;;4964855;28;20043;-88
2023/10/13 08:06:41;;;;;;;9.77;6.80;;;16.50;99.90;;;;;;4934984;28;20039;-86
2023/10/13 08:09:09;;;;;;;14.73;7.13;;;16.50;99.90;;;;;;4963247;28;20061;-86
2023/10/13 08:11:37;;;;;;;15.88;7.70;;;16.50;99.90;;;;;;4965382;28;20051;-87
2023/10/13 08:14:11;;;;;;;12.20;7.60;;;16.50;99.90;;;;;;4962756;28;20045;-85
2023/10/13 08:16:53;;;;;;;10.93;7.60;;;16.50;99.90;;;;;;4962064;28;20031;-85
2023/10/13 08:19:44;;;;;;;13.63;8.02;;;16.50;99.90;;;;;;4964503;28;20037;-88
2023/10/13 08:35:09;;;;;;;15.48;8.35;;;16.60;99.90;;;;;;4955900;29;20189;-87
2023/10/13 08:37:46;;;;;;;14.90;8.50;;;16.70;99.90;;;;;;4966929;28;20035;-86
2023/10/13 08:48:12;;;;;;;18.08;9.68;;;16.70;99.90;;;;;;4974475;28;20105;-85
2023/10/13 08:50:52;;;;;;;15.43;9.15;;;16.70;99.90;;;;;;4958880;28;20046;-85
2023/10/13 08:53:28;;;;;;;17.77;9.32;;;16.80;99.90;;;;;;4945896;28;20046;-83
2023/10/13 08:59:05;;;;;;;17.58;9.85;;;16.80;99.90;;;;;;4976376;28;20042;-87
2023/10/13 09:01:48;;;;;;;13.57;8.35;;;16.90;99.90;;;;;;4973217;28;20039;-86
2023/10/13 09:04:26;;;;;;;20.45;10.25;;;16.90;99.90;;;;;;4950415;28;20039;-84
2023/10/13 09:12:13;;;;;;;16.23;9.65;;;17.10;99.90;;;;;;4975103;28;20043;-84
2023/10/13 09:14:56;;;;;;;21.52;11.30;;;17.10;99.90;;;;;;4973087;28;20042;-84
2023/10/13 09:20:32;;;;;;;15.68;10.25;;;17.30;99.90;;;;;;4972906;28;20499;-84
2023/10/13 09:25:36;;;;;;;21.27;10.20;;;17.40;99.90;;;;;;4957836;28;20047;-85
2023/10/13 09:28:10;;;;;;;16.75;9.98;;;17.50;99.90;;;;;;4971734;28;20042;-85
2023/10/13 09:30:46;;;;;;;19.00;10.30;;;17.50;99.90;;;;;;4973445;28;20050;-86
2023/10/13 09:33:20;;;;;;;18.20;10.80;;;17.50;99.90;;;;;;4958993;28;20402;-86
2023/10/13 09:35:49;;;;;;;18.17;10.68;;;17.50;99.90;;;;;;4969970;28;20049;-86
2023/10/13 09:38:19;;;;;;;16.83;9.95;;;17.60;99.90;;;;;;4960156;28;20059;-84
2023/10/13 09:40:50;;;;;;;16.55;9.60;;;17.60;99.90;;;;;;4951151;28;20046;-84
2023/10/13 09:43:18;;;;;;;12.52;8.88;;;17.60;99.90;;;;;;4961531;28;20046;-85
2023/10/13 09:46:02;;;;;;;13.52;8.40;;;17.60;99.90;;;;;;4960800;28;20049;-87
2023/10/13 09:48:32;;;;;;;13.80;8.20;;;17.70;99.90;;;;;;4934613;28;20065;-88
2023/10/13 09:51:02;;;;;;;15.73;9.45;;;17.80;99.90;;;;;;4962953;28;20050;-87
2023/10/13 09:53:29;;;;;;;15.02;9.50;;;17.90;99.90;;;;;;4944885;28;20066;-84
2023/10/13 09:56:14;;;;;;;15.57;8.73;;;17.90;99.90;;;;;;4946617;28;20035;-83
2023/10/13 09:58:54;;;;;;;15.27;8.90;;;18.00;99.90;;;;;;4981531;28;20050;-82
2023/10/13 10:01:37;;;;;;;14.63;8.43;;;18.00;99.90;;;;;;4962622;28;20046;-85
2023/10/13 10:04:16;;;;;;;13.63;8.73;;;18.10;99.90;;;;;;4982324;28;20118;-87
2023/10/13 10:06:56;;;;;;;14.73;8.40;;;18.10;99.90;;;;;;4946132;28;20372;-85
2023/10/13 10:09:37;;;;;;;15.68;8.45;;;18.10;99.90;;;;;;4982830;28;20039;-88
2023/10/13 10:12:47;;;;;;;15.18;8.20;;;18.20;99.90;;;;;;4932560;28;20049;-88
2023/10/13 10:15:53;;;;;;;17.67;8.68;;;18.20;99.90;;;;;;4948660;28;20046;-87
2023/10/13 10:18:25;;;;;;;13.88;8.68;;;18.20;99.90;;;;;;4932706;28;20050;-84
2023/10/13 10:20:52;;;;;;;;;;;18.30;99.90;;;;;;4933483;28;20558;-87
2023/10/13 10:23:53;;;;;;;16.40;8.35;;;18.30;99.90;;;;;;4956064;28;19926;-86
2023/10/13 10:26:21;;;;;;;19.17;7.90;;;18.30;99.90;;;;;;4963054;28;20039;-86
2023/10/13 10:28:47;;;;;;;12.65;8.05;;;18.40;99.90;;;;;;4942087;28;20731;-86
2023/10/13 10:31:19;;;;;;;14.00;7.65;;;18.50;99.90;;;;;;4964612;28;20042;-85
2023/10/13 10:33:52;;;;;;;12.88;7.50;;;18.60;99.90;;;;;;4944029;28;20042;-85
2023/10/13 10:36:31;;;;;;;14.85;7.25;;;18.70;99.90;;;;;;4961064;28;20047;-86
2023/10/13 10:39:00;;;;;;;15.93;7.60;;;18.90;99.90;;;;;;4959646;28;20162;-85
2023/10/13 10:41:51;;;;;;;15.75;8.02;;;19.00;99.90;;;;;;4944795;28;20066;-85
2023/10/13 10:44:22;;;;;;;14.77;6.97;;;19.20;99.90;;;;;;4976897;28;20035;-86
2023/10/13 10:46:57;;;;;;;;;;;19.30;99.90;;;;;;4946503;28;20342;-86
2023/10/13 10:49:30;;;;;;;14.60;7.13;;;19.30;99.90;;;;;;4962883;28;19930;-86
2023/10/13 10:52:07;;;;;;;10.98;7.13;;;19.50;99.90;;;;;;4945517;28;20093;-87
2023/10/13 10:54:33;;;;;;;17.20;6.75;;;19.60;99.90;;;;;;4932685;28;20039;-85
2023/10/13 10:57:17;;;;;;;15.23;6.60;;;19.60;99.90;;;;;;4949522;28;20042;-87
2023/10/13 10:59:43;;;;;;;14.48;7.07;;;19.60;99.90;;;;;;4962516;28;20035;-85
2023/10/13 11:02:08;;;;;;;15.02;6.53;;;19.60;99.90;;;;;;4949819;28;20041;-86
2023/10/13 11:04:41;;;;;;;15.13;7.18;;;19.50;99.90;;;;;;4945610;28;20047;-87
2023/10/13 11:07:08;;;;;;;13.55;7.03;;;19.50;99.90;;;;;;4961928;28;20134;-84
2023/10/13 11:12:13;;;;;;;13.77;7.03;;;19.50;99.90;;;;;;4956956;28;20130;-89
2023/10/13 11:14:39;;;;;;;15.07;6.95;;;19.50;99.90;;;;;;4959333;28;20090;-87
2023/10/13 11:17:13;;;;;;;15.13;7.60;;;19.40;99.90;;;;;;4940302;28;20038;-87
2023/10/13 11:19:43;;;;;;;11.05;6.95;;;19.40;99.90;;;;;;4930784;28;20122;-84
2023/10/13 11:22:41;;;;;;;12.45;7.22;;;19.30;99.90;;;;;;4945217;28;20070;-84
2023/10/13 11:25:11;;;;;;;15.77;7.20;;;19.30;99.90;;;;;;4963286;28;20047;-83
2023/10/13 11:30:14;;;;;;;16.45;7.07;;;19.40;99.90;;;;;;4979225;28;20411;-87
2023/10/13 11:32:42;;;;;;;11.53;7.17;;;19.40;99.90;;;;;;4957597;28;20053;-87
2023/10/13 11:35:20;;;;;;;13.93;7.78;;;19.30;99.90;;;;;;4943154;28;20039;-85
2023/10/13 11:38:13;;;;;;;17.98;7.95;;;19.30;99.90;;;;;;4944497;28;20487;-90
2023/10/13 11:41:06;;;;;;;14.48;7.15;;;19.30;99.90;;;;;;4942655;28;20066;-86
2023/10/13 11:51:49;;;;;;;17.92;8.15;;;19.40;99.90;;;;;;4957180;28;20102;-82
2023/10/13 11:54:19;;;;;;;13.70;7.35;;;19.40;99.90;;;;;;4958577;28;20074;-85
2023/10/13 11:56:49;;;;;;;15.27;7.60;;;19.40;99.90;;;;;;4964175;28;20074;-85
2023/10/13 11:59:18;;;;;;;14.30;7.72;;;19.50;99.90;;;;;;4943808;28;20090;-88
2023/10/13 12:07:23;;;;;;;15.20;8.45;;;19.50;99.90;;;;;;4964166;28;20109;-83
2023/10/13 12:12:21;;;;;;;15.95;7.50;;;19.40;99.90;;;;;;4965387;28;20055;-88
2023/10/13 12:14:52;;;;;;;13.75;7.22;;;19.40;99.90;;;;;;4948681;28;20125;-82
2023/10/13 12:17:27;;;;;;;17.13;6.97;;;19.40;99.90;;;;;;4949608;28;20372;-82
2023/10/13 12:19:54;;;;;;;21.48;8.02;;;19.40;99.90;;;;;;4949018;28;20057;-84
2023/10/13 12:22:35;;;;;;;16.83;7.18;;;19.50;99.90;;;;;;4959556;28;20043;-86
2023/10/13 12:25:05;;;;;;;17.75;7.60;;;19.50;99.90;;;;;;4948494;28;20077;-85
2023/10/13 12:27:45;;;;;;;16.13;7.72;;;19.50;99.90;;;;;;4951644;28;20093;-86
2023/10/13 12:30:22;;;;;;;16.23;7.40;;;19.40;99.90;;;;;;4958051;28;20047;-87
2023/10/13 12:32:58;;;;;;;15.80;7.50;;;19.40;99.90;;;;;;4963361;28;20399;-80
2023/10/13 12:35:34;;;;;;;15.13;8.27;;;19.40;99.90;;;;;;4947208;28;20125;-84
2023/10/13 12:38:16;;;;;;;15.63;7.28;;;19.40;99.90;;;;;;4964839;28;20039;-84
2023/10/13 12:49:14;;;;;;;15.93;7.95;;;19.40;99.90;;;;;;4980426;28;20503;-84
2023/10/13 12:51:40;;;;;;;16.70;7.35;;;19.40;99.90;;;;;;4921931;28;20057;-83
2023/10/13 12:54:20;;;;;;;13.40;7.50;;;19.40;99.90;;;;;;4959970;28;20039;-84
2023/10/13 12:56:46;;;;;;;17.30;7.40;;;19.40;99.90;;;;;;4946128;28;20074;-84
2023/10/13 12:59:15;;;;;;;15.13;8.05;;;19.40;99.90;;;;;;4950466;28;20129;-82
2023/10/13 13:01:43;;;;;;;16.60;7.82;;;19.50;99.90;;;;;;4961360;28;20034;-84
2023/10/13 13:04:23;;;;;;;22.17;8.40;;;19.50;99.90;;;;;;4948781;28;20479;-81
2023/10/13 13:06:50;;;;;;;16.50;7.50;;;19.50;99.90;;;;;;4959843;28;20141;-82
2023/10/13 13:09:25;;;;;;;18.20;7.63;;;19.60;99.90;;;;;;4961411;28;20508;-90
2023/10/13 13:11:57;;;;;;;16.92;7.72;;;19.70;99.90;;;;;;4949318;28;20046;-84
2023/10/13 13:14:28;;;;;;;14.80;7.25;;;19.80;99.90;;;;;;4966178;28;20394;-85
2023/10/13 13:17:07;;;;;;;16.45;6.80;;;19.80;99.90;;;;;;4963772;28;20522;-87
2023/10/13 13:19:39;;;;;;;16.95;8.82;;;19.80;99.90;;;;;;4964958;28;20410;-81
2023/10/13 13:22:11;;;;;;;19.92;8.23;;;19.70;99.90;;;;;;4963667;28;20134;-83
2023/10/13 13:24:44;;;;;;;15.85;7.43;;;19.70;99.90;;;;;;4964140;28;20043;-85
2023/10/13 13:27:14;;;;;;;15.25;7.53;;;19.70;99.90;;;;;;4967373;28;20041;-85
2023/10/13 13:29:41;;;;;;;13.93;7.57;;;19.70;99.90;;;;;;4947445;28;20606;-85
2023/10/13 13:32:17;;;;;;;17.38;8.00;;;19.80;99.90;;;;;;4951582;28;20054;-83
2023/10/13 13:34:43;;;;;;;15.20;8.23;;;19.80;99.90;;;;;;4966522;28;20042;-85
2023/10/13 13:37:12;;;;;;;17.90;8.18;;;19.80;99.90;;;;;;4965964;28;20042;-83
2023/10/13 13:39:44;;;;;;;17.15;8.20;;;19.80;99.90;;;;;;4956628;28;21396;-86
2023/10/13 13:42:10;;;;;;;16.48;7.90;;;19.70;99.90;;;;;;4969151;28;20356;-84
2023/10/13 13:44:36;;;;;;;16.52;8.32;;;19.70;99.90;;;;;;4970032;28;20058;-84
2023/10/13 13:47:14;;;;;;;15.35;8.15;;;19.60;99.90;;;;;;4957056;28;20105;-84
2023/10/13 13:49:50;;;;;;;14.15;8.05;;;19.60;99.90;;;;;;4972946;28;20380;-83
2023/10/13 13:52:21;;;;;;;17.08;8.88;;;19.50;99.90;;;;;;4952341;28;20055;-87
2023/10/13 13:54:47;;;;;;;14.13;8.15;;;19.40;99.90;;;;;;4969933;28;20395;-83
2023/10/13 13:57:13;;;;;;;15.23;8.00;;;19.30;99.90;;;;;;4955519;28;20031;-87
2023/10/13 13:59:43;;;;;;;16.42;8.40;;;19.30;99.90;;;;;;4956116;28;20521;-86
2023/10/13 14:02:19;;;;;;;17.35;9.07;;;19.20;99.90;;;;;;4972074;28;20046;-86
2023/10/13 14:04:50;;;;;;;16.70;8.20;;;19.10;99.90;;;;;;4970604;28;20503;-88
2023/10/13 14:07:19;;;;;;;20.33;8.95;;;19.00;99.90;;;;;;4956473;28;20101;-84
2023/10/13 14:09:51;;;;;;;17.40;8.63;;;18.90;99.90;;;;;;4972603;28;20043;-83
2023/10/13 14:12:36;;;;;;;19.02;9.15;;;18.90;99.90;;;;;;4940075;28;20572;-85
2023/10/13 14:15:02;;;;;;;17.90;9.27;;;18.80;99.90;;;;;;4964939;28;20487;-86
2023/10/13 14:17:35;;;;;;;18.50;9.35;;;18.80;99.90;;;;;;4963509;28;20590;-84
2023/10/13 14:20:09;;;;;;;20.38;9.63;;;18.80;99.90;;;;;;4945697;28;20039;-86
2023/10/13 14:22:37;;;;;;;17.63;9.98;;;18.80;99.90;;;;;;4947217;28;20561;-83
2023/10/13 14:25:08;;;;;;;16.50;9.32;;;18.80;99.90;;;;;;4947453;28;20046;-84
2023/10/13 14:27:35;;;;;;;17.83;8.80;;;18.80;99.90;;;;;;4947273;28;20042;-82
2023/10/13 14:30:04;;;;;;;22.08;10.00;;;18.70;99.90;;;;;;4948640;28;20133;-85
2023/10/13 14:32:30;;;;;;;19.13;9.18;;;18.70;99.90;;;;;;4963693;28;20082;-85
2023/10/13 14:34:56;;;;;;;18.52;9.95;;;18.70;99.90;;;;;;4943054;28;20077;-84
2023/10/13 14:37:31;;;;;;;19.13;9.32;;;18.70;99.90;;;;;;4932606;28;20902;-87
2023/10/13 14:39:59;;;;;;;20.08;9.80;;;18.70;99.90;;;;;;4979353;28;20047;-85
2023/10/13 14:42:26;;;;;;;17.17;9.02;;;18.70;99.90;;;;;;4957088;28;20101;-86
2023/10/13 14:44:55;;;;;;;16.88;8.95;;;18.80;99.90;;;;;;4958405;28;20049;-84
2023/10/13 14:47:25;;;;;;;19.52;8.10;;;18.80;99.90;;;;;;4958441;28;20038;-85
2023/10/13 14:49:59;;;;;;;16.65;8.80;;;18.80;99.90;;;;;;4974548;28;20519;-84
2023/10/13 14:52:25;;;;;;;15.80;9.15;;;18.80;99.90;;;;;;4946793;28;20051;-87
2023/10/13 14:54:58;;;;;;;17.63;9.70;;;18.80;99.90;;;;;;4946325;28;20097;-83
2023/10/13 14:57:27;;;;;;;18.15;10.30;;;18.80;99.90;;;;;;4942097;28;20046;-81
2023/10/13 14:59:57;;;;;;;16.65;8.65;;;18.80;99.90;;;;;;4943754;28;20113;-85
2023/10/13 15:02:23;;;;;;;22.35;9.30;;;18.80;99.90;;;;;;4944513;28;20038;-85
2023/10/13 15:04:49;;;;;;;25.38;9.45;;;18.90;99.90;;;;;;4932950;28;20097;-85
2023/10/13 15:07:19;;;;;;;19.60;9.27;;;18.90;99.90;;;;;;4970460;28;20039;-82
2023/10/13 15:09:45;;;;;;;22.98;9.95;;;18.90;99.90;;;;;;4987326;28;20105;-84
2023/10/13 15:12:11;;;;;;;26.52;10.32;;;18.90;99.90;;;;;;4944503;28;20035;-81
2023/10/13 15:14:43;;;;;;;20.92;10.15;;;18.80;99.90;;;;;;4955717;28;20038;-82
2023/10/13 15:17:09;;;;;;;20.38;10.50;;;18.70;99.90;;;;;;4954101;28;20035;-84
2023/10/13 15:19:38;;;;;;;19.98;10.85;;;18.60;99.90;;;;;;4972282;28;20050;-85
2023/10/13 15:22:08;;;;;;;21.67;11.15;;;18.50;99.90;;;;;;4952685;28;20086;-85
2023/10/13 15:24:45;;;;;;;18.95;11.45;;;18.40;99.90;;;;;;4966536;28;20050;-87
2023/10/13 15:27:11;;;;;;;18.23;10.57;;;18.30;99.90;;;;;;4953579;28;20551;-86
2023/10/13 15:29:37;;;;;;;16.55;11.20;;;18.20;99.90;;;;;;4982024;28;20042;-86
2023/10/13 15:32:41;;;;;;;21.13;10.52;;;18.20;99.90;;;;;;4990357;28;20050;-88
2023/10/13 15:34:50;;;;;;;18.30;11.07;;;18.10;99.90;;;;;;4952172;28;20082;-84
2023/10/13 15:37:16;;;;;;;20.83;11.07;;;18.10;99.90;;;;;;4957942;28;20502;-85
2023/10/13 15:39:41;;;;;;;19.58;10.85;;;18.10;99.90;;;;;;4960796;28;20051;-85
2023/10/13 15:42:09;;;;;;;21.98;11.68;;;18.00;99.90;;;;;;4975677;28;20043;-86
2023/10/13 15:44:35;;;;;;;17.63;11.32;;;18.00;99.90;;;;;;4958836;28;20096;-89
2023/10/13 15:47:01;;;;;;;20.13;11.60;;;18.00;99.90;;;;;;4975033;28;20137;-86
2023/10/13 15:49:29;;;;;;;18.80;10.85;;;17.90;99.90;;;;;;4958571;28;20074;-86
2023/10/13 15:51:58;;;;;;;24.48;11.07;;;17.90;99.90;;;;;;4974674;28;20058;-85
2023/10/13 15:54:23;;;;;;;21.83;11.10;;;18.00;99.90;;;;;;4974680;28;20042;-87
2023/10/13 15:56:50;;;;;;;21.85;11.18;;;17.90;99.90;;;;;;4958037;28;20054;-87
2023/10/13 15:59:16;;;;;;;19.42;11.07;;;17.90;99.90;;;;;;4951193;28;20039;-84
2023/10/13 16:01:42;;;;;;;19.13;11.00;;;17.90;99.90;;;;;;4941687;28;20043;-87
2023/10/13 16:04:11;;;;;;;23.90;11.43;;;17.90;99.90;;;;;;4954934;28;20189;-86
2023/10/13 16:06:39;;;;;;;18.65;11.07;;;17.90;99.90;;;;;;4957035;28;20130;-84
2023/10/13 16:09:13;;;;;;;19.60;10.70;;;17.90;99.90;;;;;;4958655;28;20031;-86
2023/10/13 16:11:42;;;;;;;19.13;9.98;;;17.80;99.90;;;;;;4958286;28;20035;-85
2023/10/13 16:14:10;;;;;;;18.30;10.02;;;17.80;99.90;;;;;;4951444;28;20499;-86